Time;durP1;ratioP1;P1;durP2;ratioP2;P2;SDS_P1;SDS_P2;PMS_P1;PMS_P2;Temp;Humidity;BMP_temperature;BMP_pressure;BME280_temperature;BME280_humidity;BME280_pressure;Samples;Min_cycle;Max_cycle;Signal;HPM_P1;HPM_P2
2022/11/10 00:00:41;;;;;;;17.63;2.78;;;9.50;99.90;;;;;;5069776;28;20486;-75
2022/11/10 00:03:08;;;;;;;18.77;3.08;;;9.50;99.90;;;;;;5052957;28;20490;-74
2022/11/10 00:05:36;;;;;;;13.23;2.83;;;9.50;99.90;;;;;;5071021;28;20024;-75
2022/11/10 00:08:04;;;;;;;14.63;2.28;;;9.50;99.90;;;;;;5067255;28;20218;-75
2022/11/10 00:10:30;;;;;;;14.10;2.90;;;9.50;99.90;;;;;;5070961;28;20063;-75
2022/11/10 00:13:02;;;;;;;13.40;2.15;;;9.50;99.90;;;;;;5070915;28;20499;-74
2022/11/10 00:18:12;;;;;;;14.02;2.08;;;9.50;99.90;;;;;;5067775;28;20499;-74
2022/11/10 00:20:38;;;;;;;11.60;2.40;;;9.50;99.90;;;;;;5051187;28;20025;-75
2022/11/10 00:23:03;;;;;;;14.93;3.03;;;9.50;99.90;;;;;;5071287;28;20033;-75
2022/11/10 00:25:30;;;;;;;18.00;2.78;;;9.50;99.90;;;;;;5071095;28;20025;-75
2022/11/10 00:27:58;;;;;;;15.02;2.60;;;9.50;99.90;;;;;;5066817;28;20496;-75
2022/11/10 00:30:24;;;;;;;14.00;2.72;;;9.50;99.90;;;;;;5069874;28;20032;-75
2022/11/10 00:32:50;;;;;;;15.80;2.60;;;9.40;99.90;;;;;;5068950;28;20488;-74
2022/11/10 00:35:15;;;;;;;17.25;2.75;;;9.40;99.90;;;;;;5069961;28;20411;-75
2022/11/10 00:37:41;;;;;;;12.23;2.35;;;9.40;99.90;;;;;;5069016;28;20047;-77
2022/11/10 00:40:07;;;;;;;18.48;3.63;;;9.40;99.90;;;;;;5065955;28;20031;-75
2022/11/10 00:42:32;;;;;;;13.90;2.42;;;9.40;99.90;;;;;;5065583;28;20108;-75
2022/11/10 00:44:58;;;;;;;16.40;1.88;;;9.40;99.90;;;;;;5068355;28;20103;-75
2022/11/10 00:47:23;;;;;;;12.27;2.00;;;9.30;99.90;;;;;;5068169;28;20068;-75
2022/11/10 00:49:49;;;;;;;15.90;2.65;;;9.40;99.90;;;;;;5075654;28;20484;-75
2022/11/10 00:52:14;;;;;;;13.63;2.22;;;9.40;99.90;;;;;;5073197;28;20031;-75
2022/11/10 00:54:40;;;;;;;10.52;2.45;;;9.40;99.90;;;;;;5073214;28;20072;-75
2022/11/10 00:57:06;;;;;;;11.90;1.58;;;9.30;99.90;;;;;;5046491;28;20017;-75
2022/11/10 00:59:31;;;;;;;15.80;1.88;;;9.30;99.90;;;;;;5072542;28;20029;-75
2022/11/10 01:01:57;;;;;;;11.00;1.65;;;9.30;99.90;;;;;;5073494;28;20032;-75
2022/11/10 01:04:22;;;;;;;13.48;1.45;;;9.30;99.90;;;;;;5066699;28;20079;-75
2022/11/10 01:06:48;;;;;;;13.30;1.95;;;9.30;99.90;;;;;;5069940;28;20033;-74
2022/11/10 01:09:13;;;;;;;15.40;2.40;;;9.30;99.90;;;;;;5074464;28;20035;-74
2022/11/10 01:11:39;;;;;;;12.80;1.52;;;9.30;99.90;;;;;;5070781;28;20105;-75
2022/11/10 01:14:05;;;;;;;11.80;1.73;;;9.30;99.90;;;;;;5062911;28;20094;-74
2022/11/10 01:16:31;;;;;;;12.25;1.73;;;9.30;99.90;;;;;;5074141;28;20025;-75
2022/11/10 01:19:01;;;;;;;16.27;2.08;;;9.30;99.90;;;;;;5054009;28;20405;-76
2022/11/10 01:21:27;;;;;;;7.85;1.40;;;9.30;99.90;;;;;;5072894;28;20166;-75
2022/11/10 01:23:53;;;;;;;17.33;1.95;;;9.30;99.90;;;;;;5075092;28;20111;-75
2022/11/10 01:26:19;;;;;;;9.75;1.65;;;9.30;99.90;;;;;;5075109;28;20107;-75
2022/11/10 01:28:45;;;;;;;12.48;2.10;;;9.30;99.90;;;;;;5075633;28;20024;-75
2022/11/10 01:31:17;;;;;;;17.77;2.15;;;9.30;99.90;;;;;;5073346;28;20036;-75
2022/11/10 01:33:42;;;;;;;10.50;1.87;;;9.30;99.90;;;;;;5060128;28;20135;-75
2022/11/10 01:36:09;;;;;;;15.77;2.28;;;9.30;99.90;;;;;;5073109;28;20330;-75
2022/11/10 01:38:37;;;;;;;18.08;2.13;;;9.30;99.90;;;;;;5072323;28;20031;-75
2022/11/10 01:41:04;;;;;;;19.23;2.05;;;9.30;99.90;;;;;;5073963;28;20445;-75
2022/11/10 01:43:31;;;;;;;11.02;1.40;;;9.30;99.90;;;;;;5074042;28;20028;-75
2022/11/10 01:46:01;;;;;;;17.58;2.33;;;9.30;99.90;;;;;;5073293;28;20035;-75
2022/11/10 01:48:48;;;;;;;9.70;1.88;;;9.30;99.90;;;;;;5073923;28;20388;-75
2022/11/10 01:51:20;;;;;;;16.48;2.28;;;9.30;99.90;;;;;;5070864;28;20153;-75
2022/11/10 01:53:56;;;;;;;15.83;2.10;;;9.20;99.90;;;;;;5074202;28;20029;-75
2022/11/10 01:56:23;;;;;;;11.23;2.00;;;9.20;99.90;;;;;;5073095;28;20079;-75
2022/11/10 01:58:55;;;;;;;12.68;1.90;;;9.20;99.90;;;;;;5071098;28;20024;-75
2022/11/10 02:01:22;;;;;;;12.90;2.38;;;9.20;99.90;;;;;;5072525;28;20029;-75
2022/11/10 02:03:56;;;;;;;18.88;2.08;;;9.20;99.90;;;;;;5069877;28;20385;-75
2022/11/10 02:06:25;;;;;;;12.32;1.70;;;9.10;99.90;;;;;;5062265;28;20023;-74
2022/11/10 02:08:53;;;;;;;17.38;1.88;;;9.10;99.90;;;;;;5071880;28;20078;-75
2022/11/10 02:11:19;;;;;;;22.27;1.98;;;9.10;99.90;;;;;;5072871;28;20033;-74
2022/11/10 02:13:46;;;;;;;15.07;2.03;;;9.10;99.90;;;;;;5072674;28;20039;-74
2022/11/10 02:16:11;;;;;;;14.32;1.90;;;9.10;99.90;;;;;;5073258;28;20025;-74
2022/11/10 02:18:37;;;;;;;14.50;2.08;;;9.10;99.90;;;;;;5068987;28;20072;-74
2022/11/10 02:21:08;;;;;;;14.98;1.42;;;9.10;99.90;;;;;;5051088;28;20032;-75
2022/11/10 02:23:36;;;;;;;17.02;2.08;;;9.10;99.90;;;;;;5073956;28;20480;-75
2022/11/10 02:26:04;;;;;;;18.15;1.83;;;9.10;99.90;;;;;;5070896;28;20020;-75
2022/11/10 02:28:33;;;;;;;13.07;2.13;;;9.10;99.90;;;;;;5069961;28;20550;-74
2022/11/10 02:30:59;;;;;;;21.85;2.20;;;9.10;99.90;;;;;;5067889;28;20162;-75
2022/11/10 02:33:25;;;;;;;12.88;1.92;;;9.10;99.90;;;;;;5073613;28;20116;-75
2022/11/10 02:35:50;;;;;;;15.10;1.83;;;9.10;99.90;;;;;;5066072;28;20021;-75
2022/11/10 02:38:16;;;;;;;24.52;2.60;;;9.10;99.90;;;;;;5070786;28;20028;-75
2022/11/10 02:40:41;;;;;;;19.13;2.03;;;9.10;99.90;;;;;;5071936;28;20230;-75
2022/11/10 02:43:12;;;;;;;14.95;1.63;;;9.10;99.90;;;;;;5071449;28;20078;-75
2022/11/10 02:45:44;;;;;;;11.75;2.00;;;9.10;99.90;;;;;;5072001;28;20028;-75
2022/11/10 02:48:11;;;;;;;19.43;2.57;;;9.10;99.90;;;;;;5071468;28;20093;-75
2022/11/10 02:50:37;;;;;;;19.10;2.40;;;9.10;99.90;;;;;;5072360;28;20753;-75
2022/11/10 02:53:03;;;;;;;21.83;2.65;;;9.10;99.90;;;;;;5071606;28;20117;-75
2022/11/10 02:55:29;;;;;;;15.85;2.22;;;9.10;99.90;;;;;;5067396;28;20071;-74
2022/11/10 02:57:54;;;;;;;14.70;1.75;;;9.10;99.90;;;;;;5046885;28;20135;-75
2022/11/10 03:00:20;;;;;;;17.70;2.38;;;9.10;99.90;;;;;;5071507;28;20025;-75
2022/11/10 03:02:46;;;;;;;14.88;1.60;;;9.00;99.90;;;;;;5073066;28;20025;-75
2022/11/10 03:05:11;;;;;;;14.27;2.03;;;9.00;99.90;;;;;;5070315;28;20394;-75
2022/11/10 03:07:37;;;;;;;14.57;2.35;;;9.00;99.90;;;;;;5069402;28;20035;-75
2022/11/10 03:10:06;;;;;;;16.25;3.13;;;9.00;99.90;;;;;;5060822;28;20033;-74
2022/11/10 03:12:32;;;;;;;17.85;2.40;;;9.00;99.90;;;;;;5052773;28;20032;-75
2022/11/10 03:14:57;;;;;;;15.93;1.63;;;9.10;99.90;;;;;;5070066;28;20033;-74
2022/11/10 03:17:23;;;;;;;18.95;2.13;;;9.00;99.90;;;;;;5065768;28;20039;-74
2022/11/10 03:19:49;;;;;;;15.95;2.17;;;9.10;99.90;;;;;;5070994;28;20032;-74
2022/11/10 03:22:14;;;;;;;12.05;2.10;;;9.10;99.90;;;;;;5071612;28;20023;-74
2022/11/10 03:24:40;;;;;;;13.60;2.75;;;9.00;99.90;;;;;;5070547;28;20563;-75
2022/11/10 03:27:05;;;;;;;16.77;2.00;;;9.10;99.90;;;;;;5069167;28;20038;-75
2022/11/10 03:29:31;;;;;;;25.65;2.33;;;9.10;99.90;;;;;;5071807;28;20024;-75
2022/11/10 03:31:57;;;;;;;10.95;2.22;;;9.10;99.90;;;;;;5069365;28;20025;-75
2022/11/10 03:34:22;;;;;;;17.30;2.42;;;9.10;99.90;;;;;;5071237;28;20048;-75
2022/11/10 03:36:48;;;;;;;15.25;2.13;;;9.10;99.90;;;;;;5070143;28;20020;-75
2022/11/10 03:39:14;;;;;;;12.85;1.75;;;9.00;99.90;;;;;;5071963;28;20036;-75
2022/11/10 03:41:39;;;;;;;13.57;2.00;;;9.10;99.90;;;;;;5071454;28;20157;-75
2022/11/10 03:44:05;;;;;;;15.75;1.70;;;9.00;99.90;;;;;;5071281;28;20107;-75
2022/11/10 03:46:30;;;;;;;14.85;1.77;;;9.00;99.90;;;;;;5069273;28;20492;-74
2022/11/10 03:48:56;;;;;;;15.55;1.90;;;9.00;99.90;;;;;;5070614;28;20476;-75
2022/11/10 03:51:22;;;;;;;12.45;1.63;;;9.00;99.90;;;;;;5070968;28;20108;-75
2022/11/10 03:53:47;;;;;;;14.70;2.17;;;8.90;99.90;;;;;;5070077;28;20404;-75
2022/11/10 03:56:13;;;;;;;20.23;2.78;;;9.00;99.90;;;;;;5067771;28;20389;-74
2022/11/10 03:58:40;;;;;;;17.25;1.52;;;8.90;99.90;;;;;;5062939;28;20035;-75
2022/11/10 04:01:05;;;;;;;15.40;2.63;;;9.00;99.90;;;;;;5069853;28;20024;-75
2022/11/10 04:03:31;;;;;;;10.55;1.88;;;9.00;99.90;;;;;;5070582;28;20051;-75
2022/11/10 04:08:58;;;;;;;17.25;2.10;;;9.00;99.90;;;;;;5064036;28;20094;-75
2022/11/10 04:16:53;;;;;;;15.27;2.10;;;9.00;99.90;;;;;;5065104;28;20035;-74
2022/11/10 04:19:19;;;;;;;16.75;1.75;;;8.90;99.90;;;;;;5071024;28;20028;-75
2022/11/10 04:21:45;;;;;;;14.38;1.50;;;8.90;99.90;;;;;;5070018;28;20060;-75
2022/11/10 04:24:10;;;;;;;19.48;2.03;;;8.90;99.90;;;;;;5074693;28;20444;-74
2022/11/10 04:26:37;;;;;;;18.00;1.60;;;8.90;99.90;;;;;;5063421;28;20052;-74
2022/11/10 04:29:05;;;;;;;15.50;1.63;;;8.90;99.90;;;;;;5074793;28;20499;-74
2022/11/10 04:31:32;;;;;;;11.48;1.70;;;8.80;99.90;;;;;;5074493;28;20060;-74
2022/11/10 04:33:58;;;;;;;21.33;1.85;;;8.90;99.90;;;;;;5074573;28;20476;-75
2022/11/10 04:36:26;;;;;;;18.35;1.88;;;8.80;99.90;;;;;;5074279;28;20031;-76
2022/11/10 04:38:54;;;;;;;15.57;2.00;;;8.80;99.90;;;;;;5075734;28;20032;-76
2022/11/10 04:41:20;;;;;;;14.68;2.05;;;8.80;99.90;;;;;;5074714;28;20093;-76
2022/11/10 04:43:45;;;;;;;9.18;1.38;;;8.80;99.90;;;;;;5074156;28;20130;-76
2022/11/10 04:46:28;;;;;;;10.77;1.90;;;8.80;99.90;;;;;;5072880;28;20028;-76
2022/11/10 04:48:55;;;;;;;15.55;2.08;;;8.90;99.90;;;;;;5059796;28;20366;-76
2022/11/10 04:51:35;;;;;;;18.13;1.70;;;8.90;99.90;;;;;;5064305;28;20374;-76
2022/11/10 04:54:01;;;;;;;14.98;1.67;;;8.90;99.90;;;;;;5071163;28;20427;-76
2022/11/10 04:56:28;;;;;;;11.35;2.60;;;8.90;99.90;;;;;;5072164;28;20158;-76
2022/11/10 04:58:53;;;;;;;16.17;2.22;;;8.90;99.90;;;;;;5061424;28;20029;-76
2022/11/10 05:01:22;;;;;;;15.13;1.92;;;8.90;99.90;;;;;;5073397;28;20035;-75
2022/11/10 05:03:48;;;;;;;15.48;1.38;;;9.00;99.90;;;;;;5067289;28;20040;-76
2022/11/10 05:06:14;;;;;;;18.95;2.20;;;9.00;99.90;;;;;;5072909;28;20021;-76
2022/11/10 05:08:41;;;;;;;20.85;1.45;;;9.00;99.90;;;;;;5056394;28;20086;-76
2022/11/10 05:11:07;;;;;;;19.15;2.15;;;8.90;99.90;;;;;;5072732;28;20020;-76
2022/11/10 05:13:32;;;;;;;16.48;1.60;;;9.00;99.90;;;;;;5057797;28;20513;-75
2022/11/10 05:15:58;;;;;;;17.08;1.80;;;8.90;99.90;;;;;;5072559;28;20032;-75
2022/11/10 05:18:24;;;;;;;21.00;1.85;;;8.90;99.90;;;;;;5070428;28;20028;-76
2022/11/10 05:20:52;;;;;;;16.00;2.35;;;8.90;99.90;;;;;;5072233;28;20042;-76
2022/11/10 05:23:36;;;;;;;14.60;1.50;;;8.90;99.90;;;;;;5075046;28;20028;-77
2022/11/10 05:26:06;;;;;;;16.83;2.03;;;8.80;99.90;;;;;;5074099;28;20025;-76
2022/11/10 05:28:32;;;;;;;14.93;1.75;;;8.90;99.90;;;;;;5067831;28;20025;-76
2022/11/10 05:30:57;;;;;;;14.65;1.30;;;8.90;99.90;;;;;;5071591;28;20521;-75
2022/11/10 05:33:23;;;;;;;13.82;1.23;;;8.80;99.90;;;;;;5069684;28;20029;-76
2022/11/10 05:35:49;;;;;;;21.75;1.60;;;8.80;99.90;;;;;;5071570;28;20032;-76
2022/11/10 05:38:15;;;;;;;12.68;1.80;;;8.70;99.90;;;;;;5067577;28;20028;-76
2022/11/10 05:40:41;;;;;;;18.42;2.45;;;8.70;99.90;;;;;;5067700;28;20433;-76
2022/11/10 05:43:07;;;;;;;7.30;0.98;;;8.70;99.90;;;;;;5071414;28;20081;-75
2022/11/10 05:45:32;;;;;;;21.40;2.15;;;8.70;99.90;;;;;;5071373;28;20499;-75
2022/11/10 05:47:58;;;;;;;19.27;1.58;;;8.70;99.90;;;;;;5069827;28;20037;-76
2022/11/10 05:50:24;;;;;;;12.15;1.52;;;8.70;99.90;;;;;;5071111;28;20032;-76
2022/11/10 05:52:53;;;;;;;14.80;1.90;;;8.70;99.90;;;;;;5070247;28;20044;-76
2022/11/10 05:55:21;;;;;;;20.65;1.73;;;8.70;99.90;;;;;;5067008;28;20076;-75
2022/11/10 05:57:48;;;;;;;15.73;1.33;;;8.70;99.90;;;;;;5062388;28;20025;-76
2022/11/10 06:00:16;;;;;;;21.65;1.83;;;8.60;99.90;;;;;;5061874;28;20036;-76
2022/11/10 06:02:42;;;;;;;17.42;1.67;;;8.70;99.90;;;;;;5061953;28;20028;-75
2022/11/10 06:05:08;;;;;;;9.98;1.27;;;8.70;99.90;;;;;;5059661;28;21408;-75
2022/11/10 06:07:36;;;;;;;14.95;1.65;;;8.60;99.90;;;;;;5062437;28;20082;-74
2022/11/10 06:10:02;;;;;;;21.00;2.13;;;8.70;99.90;;;;;;5068429;28;20040;-75
2022/11/10 06:12:30;;;;;;;17.20;1.77;;;8.60;99.90;;;;;;5070819;28;20024;-75
2022/11/10 06:14:57;;;;;;;14.57;1.55;;;8.60;99.90;;;;;;5052304;28;20037;-75
2022/11/10 06:17:26;;;;;;;16.73;2.33;;;8.60;99.90;;;;;;5062591;28;20117;-74
2022/11/10 06:19:52;;;;;;;17.05;1.52;;;8.60;99.90;;;;;;5059858;28;20176;-75
2022/11/10 06:22:18;;;;;;;15.13;1.98;;;8.60;99.90;;;;;;5070905;28;20071;-75
2022/11/10 06:24:43;;;;;;;18.45;1.90;;;8.60;99.90;;;;;;5065969;28;20029;-75
2022/11/10 06:27:09;;;;;;;20.00;1.92;;;8.60;99.90;;;;;;5071512;28;20046;-75
2022/11/10 06:29:34;;;;;;;16.17;1.73;;;8.60;99.90;;;;;;5047468;28;20044;-75
2022/11/10 06:32:00;;;;;;;19.05;1.58;;;8.60;99.90;;;;;;5063445;28;20021;-74
2022/11/10 06:34:27;;;;;;;16.45;2.00;;;8.60;99.90;;;;;;5064958;28;20500;-75
2022/11/10 06:36:52;;;;;;;12.48;1.40;;;8.60;99.90;;;;;;5062964;28;20031;-75
2022/11/10 06:39:18;;;;;;;17.33;1.77;;;8.60;99.90;;;;;;5063419;28;20428;-74
2022/11/10 06:41:43;;;;;;;17.90;2.03;;;8.60;99.90;;;;;;5059446;28;20070;-75
2022/11/10 06:44:10;;;;;;;13.85;1.65;;;8.60;99.90;;;;;;5058922;28;20040;-74
2022/11/10 06:46:36;;;;;;;16.08;1.70;;;8.50;99.90;;;;;;5067899;28;20025;-75
2022/11/10 06:49:02;;;;;;;10.55;1.45;;;8.60;99.90;;;;;;5065063;28;20395;-74
2022/11/10 06:51:28;;;;;;;17.83;1.92;;;8.60;99.90;;;;;;5069885;28;20096;-75
2022/11/10 06:53:53;;;;;;;14.75;1.52;;;8.60;99.90;;;;;;5064070;28;20399;-75
2022/11/10 06:56:19;;;;;;;17.35;2.42;;;8.60;99.90;;;;;;5065306;28;20051;-75
2022/11/10 06:58:44;;;;;;;21.13;2.15;;;8.60;99.90;;;;;;5059743;28;20056;-75
2022/11/10 07:01:10;;;;;;;13.98;1.73;;;8.70;99.90;;;;;;5065353;28;20498;-75
2022/11/10 07:03:36;;;;;;;9.13;1.70;;;8.70;99.90;;;;;;5062270;28;20031;-75
2022/11/10 07:06:02;;;;;;;14.43;1.45;;;8.80;99.90;;;;;;5060359;28;20025;-75
2022/11/10 07:08:28;;;;;;;13.15;1.65;;;8.80;99.90;;;;;;5044607;28;20029;-75
2022/11/10 07:10:54;;;;;;;13.55;1.42;;;8.80;99.90;;;;;;5065582;28;20031;-74
2022/11/10 07:13:21;;;;;;;16.35;1.50;;;8.80;99.90;;;;;;5060972;28;20044;-74
2022/11/10 07:15:46;;;;;;;17.23;1.65;;;8.80;99.90;;;;;;5062507;28;20025;-74
2022/11/10 07:18:12;;;;;;;15.52;2.08;;;8.90;99.90;;;;;;5059788;28;20138;-75
2022/11/10 07:20:38;;;;;;;16.00;1.60;;;8.90;99.90;;;;;;5069661;28;20063;-75
2022/11/10 07:23:06;;;;;;;20.58;1.65;;;8.90;99.90;;;;;;5069852;28;20024;-75
2022/11/10 07:25:34;;;;;;;24.17;2.95;;;8.90;99.90;;;;;;5067753;28;20512;-76
2022/11/10 07:28:06;;;;;;;17.55;2.78;;;9.00;99.90;;;;;;5068087;28;20047;-75
2022/11/10 07:30:33;;;;;;;41.92;6.25;;;9.10;99.90;;;;;;5062286;28;20454;-75
2022/11/10 07:33:04;;;;;;;18.80;2.92;;;9.20;99.90;;;;;;5068921;28;20127;-75
2022/11/10 07:35:30;;;;;;;17.80;2.10;;;9.20;99.90;;;;;;5066231;28;20036;-76
2022/11/10 07:37:57;;;;;;;19.92;2.30;;;9.30;99.90;;;;;;5066908;28;20024;-75
2022/11/10 07:40:23;;;;;;;14.48;1.40;;;9.30;99.90;;;;;;5069893;28;20040;-75
2022/11/10 07:42:49;;;;;;;15.40;1.90;;;9.30;99.90;;;;;;5068702;28;20032;-74
2022/11/10 07:45:14;;;;;;;14.35;1.73;;;9.40;99.90;;;;;;5064634;28;20021;-75
2022/11/10 07:47:40;;;;;;;21.13;2.10;;;9.40;99.90;;;;;;5049710;28;20024;-75
2022/11/10 07:50:06;;;;;;;13.52;1.60;;;9.40;99.90;;;;;;5062429;28;20041;-75
2022/11/10 07:52:33;;;;;;;11.20;1.75;;;9.40;99.90;;;;;;5064170;28;20354;-75
2022/11/10 07:54:59;;;;;;;12.27;2.13;;;9.50;99.90;;;;;;5058377;28;20110;-75
2022/11/10 07:57:24;;;;;;;17.13;1.85;;;9.50;99.90;;;;;;5064035;28;20116;-75
2022/11/10 07:59:50;;;;;;;11.80;1.58;;;9.60;99.90;;;;;;5068276;28;20166;-75
2022/11/10 08:02:15;;;;;;;14.18;2.08;;;9.60;99.90;;;;;;5068675;28;20025;-75
2022/11/10 08:04:41;;;;;;;24.20;2.38;;;9.60;99.90;;;;;;5072124;28;20028;-75
2022/11/10 08:07:06;;;;;;;17.75;2.30;;;9.70;99.90;;;;;;5060183;28;20025;-76
2022/11/10 08:09:32;;;;;;;16.48;1.75;;;9.70;99.90;;;;;;5066994;28;20387;-76
2022/11/10 08:11:58;;;;;;;11.43;1.42;;;9.70;99.90;;;;;;5070130;28;20028;-75
2022/11/10 08:14:23;;;;;;;22.75;2.22;;;9.80;99.90;;;;;;5072110;28;20040;-76
2022/11/10 08:16:49;;;;;;;19.55;1.67;;;9.80;99.90;;;;;;5065094;28;20039;-76
2022/11/10 08:19:15;;;;;;;22.05;1.63;;;9.90;99.90;;;;;;5066968;28;20028;-75
2022/11/10 08:21:40;;;;;;;17.67;1.48;;;9.90;99.90;;;;;;5050057;28;20017;-75
2022/11/10 08:24:06;;;;;;;17.95;2.40;;;10.00;99.90;;;;;;5070379;28;20028;-76
2022/11/10 08:26:32;;;;;;;15.98;1.95;;;10.00;99.90;;;;;;5063377;28;20013;-76
2022/11/10 08:28:57;;;;;;;18.67;2.47;;;10.10;99.90;;;;;;5059477;28;20033;-76
2022/11/10 08:31:23;;;;;;;19.45;2.13;;;10.10;99.90;;;;;;5059306;28;20071;-76
2022/11/10 08:33:49;;;;;;;15.02;2.60;;;10.20;99.90;;;;;;5066624;28;20040;-76
2022/11/10 08:36:15;;;;;;;17.08;1.45;;;10.20;99.90;;;;;;5069259;28;20021;-76
2022/11/10 08:38:41;;;;;;;18.17;1.67;;;10.30;99.90;;;;;;5070866;28;20150;-75
2022/11/10 08:41:06;;;;;;;13.30;2.00;;;10.30;99.90;;;;;;5072346;28;20049;-75
2022/11/10 08:43:32;;;;;;;15.98;1.92;;;10.40;99.90;;;;;;5071780;28;20021;-75
2022/11/10 08:45:57;;;;;;;21.92;2.58;;;10.50;99.90;;;;;;5062043;28;20032;-75
2022/11/10 08:48:23;;;;;;;17.88;2.03;;;10.50;99.90;;;;;;5046769;28;20032;-75
2022/11/10 08:50:50;;;;;;;19.48;2.05;;;10.60;99.90;;;;;;5065933;28;20032;-75
2022/11/10 08:53:19;;;;;;;20.17;1.98;;;10.70;99.90;;;;;;5071436;28;20040;-75
2022/11/10 08:55:45;;;;;;;19.17;1.80;;;10.80;99.90;;;;;;5071474;28;20051;-75
2022/11/10 08:58:15;;;;;;;15.55;1.52;;;10.90;99.90;;;;;;5070137;28;20028;-75
2022/11/10 09:00:41;;;;;;;10.68;1.65;;;11.00;99.90;;;;;;5065454;28;20017;-75
2022/11/10 09:03:13;;;;;;;15.63;2.00;;;11.10;99.90;;;;;;5069113;28;20480;-76
2022/11/10 09:05:39;;;;;;;13.40;1.75;;;11.10;99.90;;;;;;5066145;28;20019;-75
2022/11/10 09:08:05;;;;;;;17.10;1.73;;;11.20;99.90;;;;;;5046687;28;20058;-75
2022/11/10 09:10:33;;;;;;;16.27;1.73;;;11.20;99.90;;;;;;5070546;28;20035;-75
2022/11/10 09:13:00;;;;;;;16.45;2.13;;;11.30;99.90;;;;;;5069662;28;20116;-75
2022/11/10 09:15:26;;;;;;;13.45;1.95;;;11.40;99.90;;;;;;5050024;28;20059;-75
2022/11/10 09:17:51;;;;;;;15.57;1.52;;;11.40;99.90;;;;;;5067611;28;20115;-75
2022/11/10 09:20:17;;;;;;;19.38;1.77;;;11.40;99.90;;;;;;5067110;28;20082;-75
2022/11/10 09:22:43;;;;;;;16.10;2.15;;;11.40;99.90;;;;;;5066741;28;20029;-75
2022/11/10 09:25:09;;;;;;;16.90;2.10;;;11.50;99.90;;;;;;5055223;28;20017;-75
2022/11/10 09:27:36;;;;;;;19.38;1.83;;;11.60;99.90;;;;;;5055389;28;20056;-75
2022/11/10 09:30:05;;;;;;;14.93;1.88;;;11.60;99.90;;;;;;5056062;28;20024;-75
2022/11/10 09:32:31;;;;;;;23.95;2.47;;;11.70;99.90;;;;;;5054554;28;20033;-75
2022/11/10 09:34:58;;;;;;;12.75;1.20;;;11.80;99.90;;;;;;5064202;28;20492;-75
2022/11/10 09:37:24;;;;;;;11.27;1.80;;;11.90;99.90;;;;;;5057232;28;20028;-75
2022/11/10 09:39:49;;;;;;;12.57;1.60;;;11.90;99.90;;;;;;5072140;28;20025;-75
2022/11/10 09:42:45;;;;;;;16.40;2.35;;;12.00;99.90;;;;;;5066367;28;20047;-75
2022/11/10 09:45:23;;;;;;;12.73;1.90;;;12.10;99.90;;;;;;5072913;28;20028;-75
2022/11/10 09:48:00;;;;;;;15.18;2.00;;;12.10;99.90;;;;;;5055867;28;20052;-75
2022/11/10 09:50:44;;;;;;;12.80;1.77;;;12.20;99.90;;;;;;5053432;28;20017;-75
2022/11/10 09:53:21;;;;;;;9.32;1.55;;;12.20;99.90;;;;;;5053343;28;20048;-75
2022/11/10 09:55:52;;;;;;;14.38;1.77;;;12.30;99.90;;;;;;5055949;28;20037;-75
2022/11/10 09:58:22;;;;;;;15.82;2.53;;;12.30;99.90;;;;;;5066457;28;20035;-75
2022/11/10 10:01:26;;;;;;;21.65;2.42;;;12.40;99.90;;;;;;5058212;28;20385;-75
2022/11/10 10:04:02;;;;;;;15.63;1.73;;;12.50;99.90;;;;;;5072222;28;20024;-75
2022/11/10 10:06:28;;;;;;;14.63;1.58;;;12.50;99.90;;;;;;5055619;28;20533;-75
2022/11/10 10:09:29;;;;;;;13.38;1.15;;;12.60;99.90;;;;;;5069736;28;20036;-75
2022/11/10 10:12:02;;;;;;;16.25;2.05;;;12.60;99.90;;;;;;5063954;28;20064;-76
2022/11/10 10:14:38;;;;;;;13.18;1.95;;;12.70;99.90;;;;;;5074160;28;20040;-75
2022/11/10 10:17:17;;;;;;;15.93;2.10;;;12.70;99.90;;;;;;5058627;28;20044;-76
2022/11/10 10:19:52;;;;;;;18.67;1.77;;;12.80;99.90;;;;;;5075847;28;20037;-75
2022/11/10 10:22:54;;;;;;;17.13;1.40;;;12.90;99.90;;;;;;5056081;28;20384;-75
2022/11/10 10:25:22;;;;;;;17.95;1.48;;;12.90;99.90;;;;;;5073030;28;20126;-76
2022/11/10 10:27:57;;;;;;;12.77;1.58;;;13.00;99.90;;;;;;5047569;28;20025;-75
2022/11/10 10:30:23;;;;;;;19.23;2.92;;;13.00;99.90;;;;;;5059758;28;20029;-75
2022/11/10 10:32:56;;;;;;;13.73;1.60;;;13.10;99.90;;;;;;5048662;28;20028;-75
2022/11/10 10:35:22;;;;;;;9.85;1.63;;;13.10;99.90;;;;;;5055566;28;20035;-76
2022/11/10 10:37:52;;;;;;;14.93;1.83;;;13.10;99.90;;;;;;5057228;28;20423;-75
2022/11/10 10:40:20;;;;;;;15.65;1.23;;;13.10;99.90;;;;;;5073211;28;20066;-75
2022/11/10 10:42:46;;;;;;;10.57;1.27;;;13.20;99.90;;;;;;5074144;28;20032;-76
2022/11/10 10:45:15;;;;;;;10.13;2.08;;;13.20;99.90;;;;;;5069927;28;20086;-75
2022/11/10 10:47:41;;;;;;;12.98;1.42;;;13.30;99.90;;;;;;5073888;28;20384;-75
2022/11/10 10:50:29;;;;;;;15.93;2.17;;;13.30;99.90;;;;;;5071804;28;20353;-75
2022/11/10 10:53:21;;;;;;;13.52;2.28;;;13.30;99.90;;;;;;5073027;28;20055;-75
2022/11/10 10:56:01;;;;;;;15.35;1.50;;;13.40;99.90;;;;;;5068155;28;20052;-75
2022/11/10 10:58:32;;;;;;;14.90;1.23;;;13.40;99.90;;;;;;5055544;28;20086;-75
2022/11/10 11:01:19;;;;;;;10.75;1.52;;;13.40;99.90;;;;;;5064725;28;20060;-75
2022/11/10 11:03:50;;;;;;;13.20;1.30;;;13.50;99.90;;;;;;5051870;28;20028;-75
2022/11/10 11:06:30;;;;;;;12.10;1.38;;;13.50;99.90;;;;;;5048688;28;20078;-75
2022/11/10 11:09:20;;;;;;;13.95;1.40;;;13.60;99.90;;;;;;5065565;28;20028;-76
2022/11/10 11:12:02;;;;;;;16.00;1.45;;;13.60;99.90;;;;;;5049489;28;21796;-75
2022/11/10 11:14:31;;;;;;;9.27;0.93;;;13.70;99.90;;;;;;5064146;28;20071;-75
2022/11/10 11:17:11;;;;;;;12.27;1.58;;;13.70;99.90;;;;;;5071182;28;20073;-75
2022/11/10 11:19:38;;;;;;;11.13;1.40;;;13.80;99.90;;;;;;5064805;28;20396;-75
2022/11/10 11:22:25;;;;;;;15.07;1.05;;;13.90;99.90;;;;;;5047903;28;20064;-76
2022/11/10 11:25:09;;;;;;;10.18;1.48;;;14.00;99.90;;;;;;5067100;28;20063;-75
2022/11/10 11:28:02;;;;;;;13.88;1.60;;;14.10;99.90;;;;;;5059462;28;20025;-75
2022/11/10 11:30:57;;;;;;;15.00;2.33;;;14.20;99.90;;;;;;5057230;28;20073;-75
2022/11/10 11:33:41;;;;;;;13.93;1.30;;;14.30;99.90;;;;;;5071409;28;20468;-75
2022/11/10 11:36:34;;;;;;;11.48;1.10;;;14.40;99.90;;;;;;5065889;28;20037;-75
2022/11/10 11:39:38;;;;;;;9.02;0.80;;;14.50;99.90;;;;;;5054020;28;20033;-75
2022/11/10 11:42:41;;;;;;;10.77;0.70;;;14.60;99.90;;;;;;5053565;28;20028;-75
2022/11/10 11:45:25;;;;;;;;;;;14.60;99.90;;;;;;5064654;28;20074;-75
2022/11/10 11:47:59;;;;;;;8.35;0.80;;;14.60;99.90;;;;;;5067298;28;20279;-75
2022/11/10 11:50:30;;;;;;;9.15;0.80;;;14.60;99.90;;;;;;5072121;28;20480;-75
2022/11/10 11:53:22;;;;;;;8.97;1.27;;;14.60;99.90;;;;;;5071926;28;20025;-75
2022/11/10 11:56:17;;;;;;;6.50;0.88;;;14.70;99.90;;;;;;5066864;28;20053;-75
2022/11/10 11:59:19;;;;;;;13.57;1.02;;;14.70;99.90;;;;;;5053750;28;20123;-75
2022/11/10 12:02:15;;;;;;;10.52;1.20;;;14.70;99.90;;;;;;5054157;28;20025;-75
2022/11/10 12:05:05;;;;;;;7.80;0.88;;;14.80;99.90;;;;;;5071026;28;20029;-76
2022/11/10 12:07:49;;;;;;;12.38;0.77;;;14.90;99.90;;;;;;5066152;28;20040;-76
2022/11/10 12:10:46;;;;;;;7.30;0.80;;;14.90;99.90;;;;;;5054749;28;20391;-76
2022/11/10 12:13:36;;;;;;;9.38;0.80;;;14.90;99.90;;;;;;5062692;28;20045;-76
2022/11/10 12:16:31;;;;;;;12.68;0.85;;;14.90;99.90;;;;;;5067061;28;20072;-76
2022/11/10 12:19:22;;;;;;;10.18;0.70;;;15.00;99.90;;;;;;5064279;28;20475;-74
2022/11/10 12:21:58;;;;;;;8.80;0.65;;;15.10;99.90;;;;;;5061358;28;20030;-74
2022/11/10 12:24:36;;;;;;;9.93;0.77;;;15.20;99.90;;;;;;5064348;28;20025;-75
2022/11/10 12:27:32;;;;;;;7.13;0.50;;;15.20;99.90;;;;;;5067273;28;20400;-74
2022/11/10 12:30:08;;;;;;;7.97;0.70;;;15.30;99.90;;;;;;5070431;28;20024;-75
2022/11/10 12:32:46;;;;;;;6.70;0.68;;;15.30;99.90;;;;;;5064665;28;20021;-75
2022/11/10 12:35:33;;;;;;;14.30;0.77;;;15.30;99.90;;;;;;5050304;28;20032;-74
2022/11/10 12:38:04;;;;;;;10.35;0.85;;;15.40;99.90;;;;;;5063044;28;20052;-75
2022/11/10 12:41:00;;;;;;;12.00;1.73;;;15.50;99.90;;;;;;5071085;28;20028;-75
2022/11/10 12:43:53;;;;;;;10.13;0.80;;;15.70;99.90;;;;;;5059533;28;20028;-74
2022/11/10 12:46:18;;;;;;;9.43;0.70;;;15.70;99.90;;;;;;5055743;28;20099;-75
2022/11/10 12:48:46;;;;;;;10.80;1.33;;;15.70;99.90;;;;;;5071919;28;20139;-74
2022/11/10 12:51:23;;;;;;;9.98;0.73;;;15.80;99.90;;;;;;5066333;28;20025;-75
2022/11/10 12:53:49;;;;;;;5.50;0.70;;;15.70;99.90;;;;;;5075701;28;20036;-74
2022/11/10 12:56:33;;;;;;;11.43;0.90;;;15.70;99.90;;;;;;5075453;28;20462;-74
2022/11/10 12:59:20;;;;;;;11.48;0.90;;;15.60;99.90;;;;;;5070459;28;20451;-75
2022/11/10 13:01:55;;;;;;;6.88;0.70;;;15.60;99.90;;;;;;5074062;28;20429;-75
2022/11/10 13:04:21;;;;;;;6.93;0.65;;;15.60;99.90;;;;;;5075246;28;20419;-75
2022/11/10 13:06:57;;;;;;;8.65;0.52;;;15.70;99.90;;;;;;5075462;28;20040;-74
2022/11/10 13:09:35;;;;;;;9.35;0.60;;;15.60;99.90;;;;;;5057604;28;20388;-75
2022/11/10 13:12:09;;;;;;;8.38;0.60;;;15.70;99.90;;;;;;5072715;28;20036;-75